Time;durP1;ratioP1;P1;durP2;ratioP2;P2;SDS_P1;SDS_P2;PMS_P1;PMS_P2;Temp;Humidity;BMP_temperature;BMP_pressure;BME280_temperature;BME280_humidity;BME280_pressure;Samples;Min_cycle;Max_cycle;Signal;HPM_P1;HPM_P2
2021/08/18 00:02:00;;;;;;;10.53;7.80;;;15.40;99.90;;;;;;5074166;28;20459;-75
2021/08/18 00:04:27;;;;;;;11.97;8.83;;;15.50;99.90;;;;;;5074024;28;20454;-75
2021/08/18 00:06:55;;;;;;;9.90;8.60;;;15.50;99.90;;;;;;5074111;28;20458;-75
2021/08/18 00:09:22;;;;;;;9.53;8.10;;;15.50;99.90;;;;;;5073982;28;20814;-74
2021/08/18 00:11:48;;;;;;;11.07;8.33;;;15.50;99.90;;;;;;5074254;28;20458;-75
2021/08/18 00:14:15;;;;;;;12.07;9.00;;;15.50;99.90;;;;;;5073979;28;20474;-73
2021/08/18 00:16:42;;;;;;;9.50;8.60;;;15.50;99.90;;;;;;5074046;28;20567;-75
2021/08/18 00:19:09;;;;;;;11.23;9.23;;;15.50;99.90;;;;;;5073850;28;20466;-74
2021/08/18 00:21:36;;;;;;;10.90;9.23;;;15.60;99.90;;;;;;5074239;28;20801;-74
2021/08/18 00:24:08;;;;;;;12.83;9.33;;;15.50;99.90;;;;;;5073784;28;20454;-74
2021/08/18 00:26:35;;;;;;;10.10;9.00;;;15.50;99.90;;;;;;5074202;28;20454;-74
2021/08/18 00:29:03;;;;;;;9.77;8.80;;;15.50;99.90;;;;;;5074009;28;20458;-73
2021/08/18 00:31:30;;;;;;;11.50;9.60;;;15.60;99.90;;;;;;5073885;28;20458;-75
2021/08/18 00:33:56;;;;;;;10.50;9.40;;;15.50;99.90;;;;;;5074075;28;20818;-75
2021/08/18 00:36:23;;;;;;;11.53;9.80;;;15.60;99.90;;;;;;5074187;28;20454;-75
2021/08/18 00:38:50;;;;;;;12.70;10.13;;;15.50;99.90;;;;;;5074308;28;20454;-74
2021/08/18 00:41:20;;;;;;;10.50;9.10;;;15.50;99.90;;;;;;5074834;28;20465;-75
2021/08/18 00:43:47;;;;;;;12.00;10.30;;;15.50;99.90;;;;;;5077820;28;20483;-74
2021/08/18 00:46:14;;;;;;;13.10;9.97;;;15.50;99.90;;;;;;5077650;28;20458;-76
2021/08/18 00:48:40;;;;;;;10.87;9.10;;;15.50;99.90;;;;;;5077775;28;20473;-76
2021/08/18 00:51:07;;;;;;;16.03;11.07;;;15.50;99.90;;;;;;5077345;28;20511;-75
2021/08/18 00:53:35;;;;;;;13.00;10.03;;;15.50;99.90;;;;;;5077870;28;20454;-74
2021/08/18 00:56:02;;;;;;;13.30;11.03;;;15.50;99.90;;;;;;5077527;28;20450;-75
2021/08/18 00:58:30;;;;;;;12.07;10.13;;;15.50;99.90;;;;;;5077334;28;20443;-74
2021/08/18 01:01:00;;;;;;;11.50;10.27;;;15.50;99.90;;;;;;5077357;28;20446;-73
2021/08/18 01:03:28;;;;;;;11.63;10.27;;;15.40;99.90;;;;;;5077049;28;20454;-74
2021/08/18 01:05:55;;;;;;;13.30;10.20;;;15.40;99.90;;;;;;5077049;28;20907;-73
2021/08/18 01:08:22;;;;;;;13.17;10.63;;;15.40;99.90;;;;;;5077203;28;20505;-74
2021/08/18 01:10:49;;;;;;;14.93;11.97;;;15.30;99.90;;;;;;5077233;28;20446;-74
2021/08/18 01:13:18;;;;;;;13.70;10.40;;;15.30;99.90;;;;;;5076998;28;20473;-74
2021/08/18 01:15:46;;;;;;;13.03;10.80;;;15.30;99.90;;;;;;5076617;28;20992;-74
2021/08/18 01:18:13;;;;;;;13.37;10.63;;;15.30;99.90;;;;;;5076765;28;20883;-74
2021/08/18 01:20:41;;;;;;;13.07;11.00;;;15.30;99.90;;;;;;5076877;28;20458;-74
2021/08/18 01:23:10;;;;;;;12.97;11.17;;;15.30;99.90;;;;;;5076721;28;20503;-74
2021/08/18 01:25:38;;;;;;;13.00;11.60;;;15.30;99.90;;;;;;5077629;28;20469;-74
2021/08/18 01:28:06;;;;;;;12.30;11.10;;;15.20;99.90;;;;;;5076889;28;20454;-74
2021/08/18 01:30:34;;;;;;;14.47;11.40;;;15.30;99.90;;;;;;5076938;28;20787;-74
2021/08/18 01:33:04;;;;;;;13.30;10.60;;;15.30;99.90;;;;;;5076350;28;20462;-74
2021/08/18 01:35:32;;;;;;;16.73;11.47;;;15.30;99.90;;;;;;5076800;28;20477;-74
2021/08/18 01:38:01;;;;;;;13.43;11.30;;;15.30;99.90;;;;;;5076801;28;20465;-75
2021/08/18 01:40:29;;;;;;;15.00;11.47;;;15.30;99.90;;;;;;5076396;28;20466;-74
2021/08/18 01:42:56;;;;;;;12.33;11.03;;;15.30;99.90;;;;;;5076242;28;20497;-74
2021/08/18 01:45:26;;;;;;;11.47;10.20;;;15.30;99.90;;;;;;5076535;28;20439;-74
2021/08/18 01:47:54;;;;;;;11.63;10.23;;;15.30;99.90;;;;;;5076506;28;20469;-74
2021/08/18 01:50:22;;;;;;;11.93;10.13;;;15.30;99.90;;;;;;5076541;28;20797;-73
2021/08/18 01:52:50;;;;;;;12.40;10.80;;;15.30;99.90;;;;;;5075770;28;20466;-74
2021/08/18 01:55:16;;;;;;;12.47;10.80;;;15.30;99.90;;;;;;5076030;28;20474;-75
2021/08/18 01:57:43;;;;;;;11.80;10.60;;;15.30;99.90;;;;;;5075975;28;20454;-74
2021/08/18 02:00:11;;;;;;;13.97;10.90;;;15.20;99.90;;;;;;5076015;28;20928;-73
2021/08/18 02:02:39;;;;;;;11.83;9.40;;;15.20;99.90;;;;;;5076095;28;20454;-73
2021/08/18 02:05:08;;;;;;;12.30;10.07;;;15.20;99.90;;;;;;5076168;28;20825;-73
2021/08/18 02:07:35;;;;;;;12.73;10.60;;;15.30;99.90;;;;;;5075901;28;20492;-72
2021/08/18 02:10:02;;;;;;;11.40;10.20;;;15.30;99.90;;;;;;5076023;28;20802;-72
2021/08/18 02:12:29;;;;;;;11.50;9.97;;;15.30;99.90;;;;;;5076045;28;20465;-75
2021/08/18 02:14:55;;;;;;;12.50;10.73;;;15.30;99.90;;;;;;5075579;28;20478;-74
2021/08/18 02:17:22;;;;;;;11.07;9.97;;;15.20;99.90;;;;;;5075818;28;20462;-74
2021/08/18 02:19:49;;;;;;;10.77;9.40;;;15.20;99.90;;;;;;5075583;28;20922;-74
2021/08/18 02:22:17;;;;;;;12.23;10.93;;;15.20;99.90;;;;;;5075689;28;20499;-74
2021/08/18 02:24:43;;;;;;;13.63;10.10;;;15.20;99.90;;;;;;5075459;28;20808;-74
2021/08/18 02:27:10;;;;;;;13.43;11.40;;;15.20;99.90;;;;;;5075533;28;20473;-74
2021/08/18 02:29:37;;;;;;;11.47;10.30;;;15.20;99.90;;;;;;5075340;28;20798;-76
2021/08/18 02:32:04;;;;;;;11.87;9.37;;;15.20;99.90;;;;;;5075547;28;20454;-73
2021/08/18 02:34:31;;;;;;;11.27;10.00;;;15.20;99.90;;;;;;5075250;28;20980;-73
2021/08/18 02:36:57;;;;;;;11.00;9.83;;;15.20;99.90;;;;;;5076060;28;20454;-75
2021/08/18 02:39:26;;;;;;;13.80;10.77;;;15.20;99.90;;;;;;5075655;28;20527;-74
2021/08/18 02:41:52;;;;;;;11.03;9.93;;;15.20;99.90;;;;;;5074999;28;20958;-74
2021/08/18 02:44:19;;;;;;;10.87;9.77;;;15.20;99.90;;;;;;5075172;28;20438;-74
2021/08/18 02:46:46;;;;;;;11.20;9.90;;;15.20;99.90;;;;;;5074878;28;20946;-73
2021/08/18 02:49:12;;;;;;;12.00;10.70;;;15.20;99.90;;;;;;5075279;28;20469;-74
2021/08/18 02:51:39;;;;;;;14.40;10.53;;;15.20;99.90;;;;;;5075011;28;20458;-76
2021/08/18 02:54:06;;;;;;;11.50;10.27;;;15.10;99.90;;;;;;5074760;28;20462;-74
2021/08/18 02:56:34;;;;;;;12.60;10.57;;;15.10;99.90;;;;;;5075037;28;20523;-73
2021/08/18 02:59:00;;;;;;;11.53;10.07;;;15.10;99.90;;;;;;5074749;28;20462;-74
2021/08/18 03:01:27;;;;;;;11.67;10.40;;;15.10;99.90;;;;;;5074530;28;20454;-75
2021/08/18 03:03:54;;;;;;;12.17;9.70;;;15.00;99.90;;;;;;5073842;28;20458;-74
2021/08/18 03:06:21;;;;;;;12.03;10.73;;;15.00;99.90;;;;;;5074697;28;20517;-75
2021/08/18 03:08:47;;;;;;;12.43;10.40;;;15.00;99.90;;;;;;5074666;28;20466;-76
2021/08/18 03:11:14;;;;;;;10.60;9.47;;;15.00;99.90;;;;;;5075810;28;20791;-75
2021/08/18 03:13:42;;;;;;;12.73;10.10;;;15.00;99.90;;;;;;5076153;28;20469;-76
2021/08/18 03:16:09;;;;;;;10.80;9.70;;;15.00;99.90;;;;;;5074797;28;20560;-74
2021/08/18 03:18:35;;;;;;;11.60;10.40;;;15.00;99.90;;;;;;5074412;28;20915;-75
2021/08/18 03:21:03;;;;;;;12.40;10.03;;;15.00;99.90;;;;;;5074672;28;20465;-74
2021/08/18 03:23:30;;;;;;;12.50;10.90;;;15.00;99.90;;;;;;5074329;28;20489;-74
2021/08/18 03:25:56;;;;;;;14.80;10.73;;;15.00;99.90;;;;;;5074605;28;20454;-73
2021/08/18 03:28:23;;;;;;;12.47;10.97;;;15.00;99.90;;;;;;5075051;28;20458;-73
2021/08/18 03:30:51;;;;;;;12.57;10.17;;;14.90;99.90;;;;;;5074851;28;20915;-74
2021/08/18 03:33:18;;;;;;;12.10;10.80;;;14.90;99.90;;;;;;5074536;28;20489;-75
2021/08/18 03:35:45;;;;;;;10.73;9.47;;;14.90;99.90;;;;;;5074210;28;20523;-74
2021/08/18 03:38:11;;;;;;;10.87;9.77;;;14.90;99.90;;;;;;5073961;28;20470;-75
2021/08/18 03:40:38;;;;;;;12.10;10.40;;;14.90;99.90;;;;;;5075000;28;20466;-75
2021/08/18 03:43:05;;;;;;;15.17;10.43;;;14.90;99.90;;;;;;5074020;28;20492;-74
2021/08/18 03:45:32;;;;;;;12.17;10.90;;;14.90;99.90;;;;;;5074081;28;20450;-74
2021/08/18 03:48:00;;;;;;;11.17;9.77;;;14.90;99.90;;;;;;5074507;28;20462;-74
2021/08/18 03:50:26;;;;;;;10.20;9.13;;;14.90;99.90;;;;;;5074592;28;20466;-74
2021/08/18 03:52:55;;;;;;;10.97;9.10;;;14.90;99.90;;;;;;5074244;28;20482;-75
2021/08/18 03:55:22;;;;;;;12.20;9.87;;;14.90;99.90;;;;;;5074240;28;20477;-74
2021/08/18 03:57:48;;;;;;;12.80;9.27;;;14.90;99.90;;;;;;5074263;28;20826;-74
2021/08/18 04:00:16;;;;;;;11.37;9.90;;;14.90;99.90;;;;;;5074217;28;20458;-74
2021/08/18 04:02:43;;;;;;;12.27;10.00;;;14.90;99.90;;;;;;5073921;28;20462;-74
2021/08/18 04:05:12;;;;;;;13.50;10.10;;;14.90;99.90;;;;;;5074676;28;20454;-74
2021/08/18 04:07:39;;;;;;;12.10;9.53;;;15.00;99.90;;;;;;5074382;28;20810;-73
2021/08/18 04:10:06;;;;;;;11.90;9.17;;;14.90;99.90;;;;;;5074208;28;20458;-73
2021/08/18 04:12:55;;;;;;;11.17;9.30;;;15.00;99.90;;;;;;5074035;28;20776;-73
2021/08/18 04:15:23;;;;;;;13.70;9.73;;;14.90;99.90;;;;;;5075959;28;20477;-74
2021/08/18 04:17:50;;;;;;;9.60;8.70;;;14.90;99.90;;;;;;5078150;28;20473;-74
2021/08/18 04:20:18;;;;;;;12.60;9.60;;;15.00;99.90;;;;;;5078213;28;20466;-73
2021/08/18 04:22:46;;;;;;;11.03;9.07;;;15.00;99.90;;;;;;5077857;28;20458;-75
2021/08/18 04:25:14;;;;;;;12.73;9.33;;;14.90;99.90;;;;;;5078241;28;20980;-74
2021/08/18 04:27:40;;;;;;;14.73;9.30;;;14.90;99.90;;;;;;5077781;28;20458;-74
2021/08/18 04:30:09;;;;;;;10.30;9.20;;;14.90;99.90;;;;;;5077989;28;20779;-75
2021/08/18 04:32:37;;;;;;;10.87;9.47;;;14.90;99.90;;;;;;5077930;28;20458;-74
2021/08/18 04:35:05;;;;;;;10.20;8.70;;;14.90;99.90;;;;;;5077896;28;20477;-73
2021/08/18 04:37:35;;;;;;;9.83;8.70;;;14.80;99.90;;;;;;5077666;28;20472;-74
2021/08/18 04:40:02;;;;;;;15.27;9.97;;;14.80;99.90;;;;;;5077854;28;20442;-74
2021/08/18 04:42:29;;;;;;;11.57;9.43;;;14.90;99.90;;;;;;5076989;28;20478;-74
2021/08/18 04:44:56;;;;;;;10.40;9.30;;;14.90;99.90;;;;;;5077921;28;20453;-74
2021/08/18 04:47:23;;;;;;;9.80;8.87;;;14.90;99.90;;;;;;5077934;28;20454;-73
2021/08/18 04:49:49;;;;;;;12.33;8.60;;;15.00;99.90;;;;;;5077751;28;20461;-73
2021/08/18 04:52:16;;;;;;;9.57;8.57;;;14.90;99.90;;;;;;5077617;28;20527;-74
2021/08/18 04:54:44;;;;;;;11.07;9.00;;;14.90;99.90;;;;;;5076982;28;20458;-74
2021/08/18 04:57:11;;;;;;;9.83;8.57;;;14.90;99.90;;;;;;5077210;28;20454;-74
2021/08/18 04:59:37;;;;;;;11.93;8.43;;;15.00;99.90;;;;;;5077239;28;20462;-73
2021/08/18 05:02:04;;;;;;;10.07;8.70;;;15.00;99.90;;;;;;5077404;28;20519;-74
2021/08/18 05:04:31;;;;;;;8.80;7.93;;;15.00;99.90;;;;;;5077310;28;20469;-73
2021/08/18 05:06:58;;;;;;;9.70;8.30;;;15.00;99.90;;;;;;5076773;28;20458;-74
2021/08/18 05:09:27;;;;;;;9.10;7.60;;;15.00;99.90;;;;;;5077176;28;20469;-73
2021/08/18 05:11:57;;;;;;;9.63;8.57;;;15.00;99.90;;;;;;5077090;28;20453;-74
2021/08/18 05:14:23;;;;;;;9.70;7.90;;;15.00;99.90;;;;;;5077184;28;20501;-74
2021/08/18 05:16:51;;;;;;;10.80;8.70;;;14.90;99.90;;;;;;5076664;28;20543;-74
2021/08/18 05:19:18;;;;;;;11.03;8.47;;;14.90;99.90;;;;;;5077203;28;20469;-75
2021/08/18 05:21:44;;;;;;;11.00;7.30;;;14.90;99.90;;;;;;5077036;28;20466;-74
2021/08/18 05:24:11;;;;;;;9.47;7.30;;;14.90;99.90;;;;;;5076650;28;20454;-73
2021/08/18 05:26:38;;;;;;;8.50;7.13;;;14.90;99.90;;;;;;5076038;28;20450;-75
2021/08/18 05:29:06;;;;;;;8.43;7.33;;;15.00;99.90;;;;;;5077488;28;20454;-76
2021/08/18 05:31:36;;;;;;;8.80;7.53;;;15.00;99.90;;;;;;5076637;28;20535;-73
2021/08/18 05:34:03;;;;;;;8.97;7.60;;;15.10;99.90;;;;;;5076808;28;20462;-74
2021/08/18 05:36:30;;;;;;;8.97;7.00;;;15.20;99.90;;;;;;5077186;28;20489;-74
2021/08/18 05:38:56;;;;;;;10.23;7.10;;;15.20;99.90;;;;;;5077223;28;20511;-74
2021/08/18 05:41:23;;;;;;;9.13;6.80;;;15.30;99.90;;;;;;5076580;28;20454;-74
2021/08/18 05:43:51;;;;;;;9.07;7.70;;;15.30;99.90;;;;;;5076360;28;20453;-74
2021/08/18 05:46:19;;;;;;;8.87;6.53;;;15.40;99.90;;;;;;5076680;28;20461;-75
2021/08/18 05:48:46;;;;;;;9.97;7.27;;;15.40;99.90;;;;;;5076549;28;20467;-74
2021/08/18 05:51:13;;;;;;;7.97;7.17;;;15.50;99.90;;;;;;5076662;28;20515;-75
2021/08/18 05:53:49;;;;;;;8.23;7.37;;;15.50;99.90;;;;;;5076587;28;20454;-75
2021/08/18 05:56:15;;;;;;;8.10;7.13;;;15.40;99.90;;;;;;5077040;28;20796;-74
2021/08/18 05:58:42;;;;;;;9.07;7.53;;;15.50;99.90;;;;;;5076237;28;20466;-74
2021/08/18 06:01:09;;;;;;;8.13;7.13;;;15.40;99.90;;;;;;5076407;28;20602;-73
2021/08/18 06:03:37;;;;;;;8.70;7.23;;;15.50;99.90;;;;;;5076366;28;20462;-74
2021/08/18 06:06:05;;;;;;;8.63;6.80;;;15.50;99.90;;;;;;5076052;28;20477;-74
2021/08/18 06:08:31;;;;;;;17.40;7.70;;;15.50;99.90;;;;;;5075979;28;20454;-74
2021/08/18 06:10:58;;;;;;;9.27;7.73;;;15.60;99.90;;;;;;5076153;28;20773;-74
2021/08/18 06:13:25;;;;;;;10.13;7.03;;;15.60;99.90;;;;;;5076912;28;20791;-75
2021/08/18 06:15:52;;;;;;;12.50;6.63;;;15.50;99.90;;;;;;5076198;28;20508;-74
2021/08/18 06:18:19;;;;;;;12.40;7.87;;;15.50;99.90;;;;;;5080169;28;20465;-74
2021/08/18 06:20:47;;;;;;;7.67;5.80;;;15.50;99.90;;;;;;5076769;28;20776;-74
2021/08/18 06:23:17;;;;;;;8.07;6.17;;;15.50;99.90;;;;;;5076316;28;20454;-74
2021/08/18 06:25:45;;;;;;;13.83;7.43;;;15.60;99.90;;;;;;5076458;28;20458;-74
2021/08/18 06:28:12;;;;;;;9.90;6.87;;;15.60;99.90;;;;;;5075687;28;20462;-74
2021/08/18 06:30:38;;;;;;;8.47;6.13;;;15.60;99.90;;;;;;5075591;28;20771;-73
2021/08/18 06:33:05;;;;;;;7.50;5.57;;;15.70;99.90;;;;;;5075539;28;20461;-73
2021/08/18 06:35:32;;;;;;;9.67;7.00;;;15.80;99.90;;;;;;5075690;28;20508;-74
2021/08/18 06:38:00;;;;;;;9.20;5.90;;;15.80;99.90;;;;;;5075632;28;20499;-74
2021/08/18 06:40:27;;;;;;;6.60;5.67;;;15.80;99.90;;;;;;5075748;28;20819;-74
2021/08/18 06:42:53;;;;;;;8.23;6.60;;;15.80;99.90;;;;;;5074985;28;20540;-75
2021/08/18 06:45:21;;;;;;;9.93;6.27;;;15.90;99.90;;;;;;5075364;28;20536;-75
2021/08/18 06:47:48;;;;;;;8.37;5.53;;;16.00;99.90;;;;;;5077992;28;20458;-74
2021/08/18 06:50:14;;;;;;;7.00;6.00;;;16.00;99.90;;;;;;5075991;28;20503;-74
2021/08/18 06:52:41;;;;;;;6.40;4.27;;;16.00;99.90;;;;;;5077289;28;20944;-74
2021/08/18 06:55:11;;;;;;;5.37;4.87;;;16.00;99.90;;;;;;5077064;28;20458;-74
2021/08/18 06:57:38;;;;;;;8.70;5.70;;;16.10;99.90;;;;;;5076024;28;20553;-74
2021/08/18 07:00:06;;;;;;;6.27;4.63;;;16.10;99.90;;;;;;5077916;28;20458;-75
2021/08/18 07:02:33;;;;;;;5.90;4.30;;;16.20;99.90;;;;;;5077893;28;20522;-74
2021/08/18 07:05:04;;;;;;;5.23;4.47;;;16.20;99.90;;;;;;5076266;28;20476;-74
2021/08/18 07:07:32;;;;;;;7.23;4.47;;;16.30;99.90;;;;;;5077893;28;20431;-77
2021/08/18 07:09:58;;;;;;;6.20;3.60;;;16.40;99.90;;;;;;5080927;28;20478;-74
2021/08/18 07:12:26;;;;;;;5.10;4.17;;;16.40;99.90;;;;;;5079776;28;20466;-76
2021/08/18 07:14:53;;;;;;;6.47;4.17;;;16.40;99.90;;;;;;5076103;28;20465;-76
2021/08/18 07:17:20;;;;;;;5.30;4.40;;;16.30;99.90;;;;;;5081467;28;20489;-76
2021/08/18 07:19:46;;;;;;;6.80;5.20;;;16.30;99.90;;;;;;5078543;28;20457;-74
2021/08/18 07:22:13;;;;;;;8.47;4.50;;;16.40;99.90;;;;;;5077303;28;20454;-76
2021/08/18 07:24:40;;;;;;;4.90;3.83;;;16.30;99.90;;;;;;5075206;28;20466;-75
2021/08/18 07:27:07;;;;;;;6.23;4.40;;;16.40;99.90;;;;;;5075137;28;20461;-74
2021/08/18 07:29:35;;;;;;;5.23;3.40;;;16.50;99.90;;;;;;5074374;28;20930;-74
2021/08/18 07:32:01;;;;;;;8.60;4.30;;;16.60;99.90;;;;;;5074595;28;20462;-77
2021/08/18 07:34:28;;;;;;;6.27;4.40;;;16.80;99.90;;;;;;5075731;28;20776;-74
2021/08/18 07:36:55;;;;;;;9.20;4.47;;;16.90;99.90;;;;;;5074431;28;20478;-75
2021/08/18 07:39:22;;;;;;;4.07;3.60;;;16.90;99.90;;;;;;5074701;28;20465;-76
2021/08/18 07:41:49;;;;;;;6.47;4.83;;;16.90;99.90;;;;;;5075088;28;20489;-75
2021/08/18 07:44:15;;;;;;;6.30;4.43;;;16.90;99.90;;;;;;5074670;28;20465;-74
2021/08/18 07:46:46;;;;;;;5.23;4.40;;;16.80;99.90;;;;;;5074546;28;20454;-75
2021/08/18 07:49:13;;;;;;;6.20;4.30;;;16.70;99.90;;;;;;5075035;28;20442;-73
2021/08/18 07:51:39;;;;;;;5.43;4.00;;;16.70;99.90;;;;;;5074205;28;20803;-74
2021/08/18 07:54:06;;;;;;;3.87;3.53;;;16.70;99.90;;;;;;5074292;28;20942;-73
2021/08/18 07:56:33;;;;;;;5.77;3.97;;;16.70;99.90;;;;;;5074112;28;20536;-73
2021/08/18 07:59:00;;;;;;;4.13;3.70;;;16.70;99.90;;;;;;5074073;28;20642;-73
2021/08/18 08:01:27;;;;;;;4.80;3.83;;;16.80;99.90;;;;;;5074681;28;20523;-75
2021/08/18 08:03:55;;;;;;;5.67;3.00;;;16.90;99.90;;;;;;5073807;28;20458;-74
2021/08/18 08:06:21;;;;;;;5.57;3.60;;;16.80;99.90;;;;;;5073849;28;20451;-74
2021/08/18 08:08:48;;;;;;;3.93;3.37;;;16.90;99.90;;;;;;5074580;28;20454;-74
2021/08/18 08:11:15;;;;;;;3.60;3.10;;;16.90;99.90;;;;;;5074274;28;20457;-73
2021/08/18 08:13:41;;;;;;;5.00;3.77;;;16.90;99.90;;;;;;5074234;28;20466;-73
2021/08/18 08:16:08;;;;;;;4.53;3.77;;;16.90;99.90;;;;;;5073711;28;20478;-74
2021/08/18 08:18:35;;;;;;;4.10;3.37;;;16.90;99.90;;;;;;5074372;28;20821;-73
2021/08/18 08:21:03;;;;;;;3.60;3.27;;;16.90;99.90;;;;;;5074533;28;20468;-76
2021/08/18 08:23:30;;;;;;;5.47;3.90;;;16.90;99.90;;;;;;5074216;28;20462;-75
2021/08/18 08:25:56;;;;;;;4.17;3.27;;;16.90;99.90;;;;;;5074343;28;20468;-74
2021/08/18 08:28:23;;;;;;;6.97;3.00;;;16.90;99.90;;;;;;5074428;28;20516;-74
2021/08/18 08:30:51;;;;;;;3.43;3.13;;;17.00;99.90;;;;;;5074462;28;20450;-75
2021/08/18 08:33:18;;;;;;;3.60;3.30;;;17.30;99.90;;;;;;5075696;28;20458;-73
2021/08/18 08:35:45;;;;;;;5.03;3.77;;;17.50;99.90;;;;;;5077884;28;20533;-74
2021/08/18 08:38:15;;;;;;;4.27;3.07;;;17.60;99.90;;;;;;5077950;28;20486;-74
2021/08/18 08:40:44;;;;;;;4.37;3.23;;;17.80;99.90;;;;;;5078866;28;20498;-74
2021/08/18 08:43:13;;;;;;;3.10;2.67;;;17.90;99.90;;;;;;5078763;28;20505;-74
2021/08/18 08:45:42;;;;;;;3.90;2.80;;;18.00;99.90;;;;;;5079241;28;20473;-74
2021/08/18 08:48:09;;;;;;;3.30;3.00;;;18.20;99.90;;;;;;5080482;28;20509;-75
2021/08/18 08:50:36;;;;;;;3.93;3.07;;;18.30;99.90;;;;;;5079840;28;20454;-76
2021/08/18 08:53:02;;;;;;;3.07;2.33;;;18.40;99.90;;;;;;5079137;28;20766;-75
2021/08/18 08:55:31;;;;;;;4.47;2.60;;;18.40;99.90;;;;;;5078224;28;20454;-73
2021/08/18 08:57:58;;;;;;;2.87;2.57;;;18.30;99.90;;;;;;5080913;28;20485;-73
2021/08/18 09:00:26;;;;;;;3.47;2.90;;;18.30;99.90;;;;;;5083890;28;20530;-74
2021/08/18 09:03:08;;;;;;;5.30;2.80;;;18.30;99.90;;;;;;5085982;28;20462;-74
2021/08/18 09:05:35;;;;;;;6.20;3.63;;;18.40;99.90;;;;;;5090954;28;20422;-77
2021/08/18 09:08:02;;;;;;;3.90;3.00;;;18.40;99.90;;;;;;5089233;28;20458;-73
2021/08/18 09:10:30;;;;;;;3.53;3.20;;;18.40;99.90;;;;;;5090256;28;20453;-75
2021/08/18 09:13:13;;;;;;;5.80;2.50;;;18.30;99.90;;;;;;5087889;28;20458;-73
2021/08/18 09:15:41;;;;;;;3.43;2.80;;;18.30;99.90;;;;;;5086464;28;20449;-75
2021/08/18 09:18:08;;;;;;;3.23;2.97;;;18.40;99.90;;;;;;5085728;28;20542;-74
2021/08/18 09:20:39;;;;;;;3.43;2.83;;;18.30;99.90;;;;;;5084678;28;20454;-76
2021/08/18 09:23:09;;;;;;;3.73;2.70;;;18.30;99.90;;;;;;5080687;28;20435;-74
2021/08/18 09:25:39;;;;;;;4.40;2.70;;;18.40;99.90;;;;;;5077990;28;20511;-74
2021/08/18 09:28:21;;;;;;;4.33;2.67;;;18.60;99.90;;;;;;5077010;28;20454;-74
2021/08/18 09:30:50;;;;;;;11.53;3.53;;;18.80;99.90;;;;;;5076904;28;20499;-75
2021/08/18 09:33:18;;;;;;;3.40;2.80;;;18.70;99.90;;;;;;5076918;28;20548;-73
2021/08/18 09:35:52;;;;;;;4.20;2.67;;;18.70;99.90;;;;;;5076515;28;20458;-74
2021/08/18 09:38:19;;;;;;;2.57;2.33;;;18.80;99.90;;;;;;5077271;28;20539;-73
2021/08/18 09:40:49;;;;;;;5.10;2.70;;;18.70;99.90;;;;;;5077320;28;20469;-73
2021/08/18 09:43:20;;;;;;;3.33;2.80;;;18.50;99.90;;;;;;5077812;28;20490;-74
2021/08/18 09:45:49;;;;;;;7.50;2.57;;;18.40;99.90;;;;;;5076540;28;20770;-73
2021/08/18 09:48:18;;;;;;;3.20;2.80;;;18.40;99.90;;;;;;5076399;28;20550;-73
2021/08/18 09:50:51;;;;;;;2.67;2.43;;;18.30;99.90;;;;;;5076599;28;20791;-74
2021/08/18 09:53:19;;;;;;;4.10;2.77;;;18.20;99.90;;;;;;5076346;28;20533;-74
2021/08/18 09:55:59;;;;;;;3.27;2.77;;;18.20;99.90;;;;;;5076419;28;20489;-73
2021/08/18 09:58:29;;;;;;;3.20;2.40;;;18.30;99.90;;;;;;5076427;28;20562;-75
2021/08/18 10:00:57;;;;;;;3.50;2.40;;;18.30;99.90;;;;;;5076027;28;20587;-74
2021/08/18 10:03:25;;;;;;;2.93;2.63;;;18.20;99.90;;;;;;5076563;28;20466;-73
2021/08/18 10:05:54;;;;;;;2.63;2.43;;;18.30;99.90;;;;;;5076062;28;20469;-75
2021/08/18 10:08:22;;;;;;;3.27;2.43;;;18.50;99.90;;;;;;5076916;28;20462;-75
2021/08/18 10:10:51;;;;;;;2.70;2.50;;;18.70;99.90;;;;;;5076316;28;20941;-74
2021/08/18 10:13:18;;;;;;;3.10;2.33;;;18.90;99.90;;;;;;5075889;28;20481;-75
2021/08/18 10:15:45;;;;;;;3.40;2.47;;;18.80;99.90;;;;;;5076151;28;20458;-75
2021/08/18 10:18:18;;;;;;;3.67;2.30;;;18.90;99.90;;;;;;5076001;28;20509;-74
2021/08/18 10:20:46;;;;;;;3.20;2.03;;;19.00;99.90;;;;;;5076237;28;20447;-75
2021/08/18 10:23:13;;;;;;;2.53;2.13;;;19.10;99.90;;;;;;5076196;28;20487;-74
2021/08/18 10:25:46;;;;;;;2.33;2.00;;;19.10;99.90;;;;;;5077881;28;20454;-75
2021/08/18 10:28:16;;;;;;;4.10;2.33;;;19.20;99.90;;;;;;5080298;28;20496;-75
2021/08/18 10:30:51;;;;;;;3.23;2.03;;;19.30;99.90;;;;;;5079807;28;20469;-75
2021/08/18 10:34:00;;;;;;;2.27;2.00;;;19.50;99.90;;;;;;5083394;28;20454;-74
2021/08/18 10:37:05;;;;;;;2.20;2.00;;;19.70;99.90;;;;;;5082859;28;20438;-74
2021/08/18 10:39:37;;;;;;;5.40;2.00;;;20.00;99.90;;;;;;5078646;28;20416;-75
2021/08/18 10:42:07;;;;;;;4.43;2.40;;;20.00;99.90;;;;;;5079771;28;20474;-76
2021/08/18 10:44:40;;;;;;;2.53;2.10;;;20.10;99.90;;;;;;5078200;28;20485;-75
2021/08/18 10:47:18;;;;;;;3.30;2.30;;;20.20;99.90;;;;;;5078544;28;20434;-74
2021/08/18 10:49:46;;;;;;;2.90;1.77;;;20.30;99.90;;;;;;5076726;28;20461;-73
2021/08/18 10:52:33;;;;;;;2.40;2.13;;;20.30;99.90;;;;;;5076359;28;20929;-75
2021/08/18 10:55:04;;;;;;;2.83;2.10;;;20.40;99.90;;;;;;5082523;28;20450;-74
2021/08/18 10:57:44;;;;;;;2.30;2.10;;;20.50;99.90;;;;;;5088238;28;20474;-74
2021/08/18 11:00:21;;;;;;;3.30;2.00;;;20.70;99.90;;;;;;5082446;28;20438;-73
2021/08/18 11:03:00;;;;;;;2.33;1.90;;;20.80;99.90;;;;;;5084632;28;20454;-75
2021/08/18 11:05:29;;;;;;;2.67;1.93;;;20.90;99.90;;;;;;5082288;28;20438;-75
2021/08/18 11:08:18;;;;;;;3.03;2.20;;;20.90;99.90;;;;;;5083357;28;20473;-74
2021/08/18 11:11:12;;;;;;;1.90;1.67;;;20.70;99.90;;;;;;5082095;28;20438;-74
2021/08/18 11:13:41;;;;;;;11.33;1.60;;;20.50;99.90;;;;;;5076120;28;20790;-75
2021/08/18 11:16:11;;;;;;;2.90;2.40;;;20.40;99.90;;;;;;5081191;28;20458;-74
2021/08/18 11:18:46;;;;;;;2.17;1.77;;;20.30;99.90;;;;;;5077490;28;20958;-73
2021/08/18 11:21:15;;;;;;;24.13;21.53;;;20.30;99.90;;;;;;5075063;28;20570;-73
2021/08/18 11:23:50;;;;;;;7.40;2.27;;;20.30;99.90;;;;;;5075423;28;20560;-75
2021/08/18 11:26:22;;;;;;;3.00;2.10;;;20.30;99.90;;;;;;5074638;28;20437;-77
2021/08/18 11:29:00;;;;;;;2.60;1.90;;;20.20;99.90;;;;;;5075496;28;20463;-73
2021/08/18 11:31:48;;;;;;;2.60;1.97;;;20.10;99.90;;;;;;5074209;28;20450;-72
2021/08/18 11:34:21;;;;;;;4.47;2.30;;;20.00;99.90;;;;;;5075931;28;20448;-75
2021/08/18 11:36:48;;;;;;;2.60;2.30;;;19.90;99.90;;;;;;5074546;28;20796;-75
2021/08/18 11:39:15;;;;;;;3.77;2.33;;;19.90;99.90;;;;;;5074908;28;20458;-75
2021/08/18 11:41:44;;;;;;;2.60;1.73;;;19.90;99.90;;;;;;5074645;28;20543;-76
2021/08/18 11:44:17;;;;;;;3.30;2.70;;;19.80;99.90;;;;;;5074839;28;20500;-73
2021/08/18 11:46:43;;;;;;;6.17;2.03;;;19.90;99.90;;;;;;5074001;28;20902;-73
2021/08/18 11:49:11;;;;;;;2.80;2.33;;;19.90;99.90;;;;;;5074271;28;20465;-73
2021/08/18 11:51:39;;;;;;;2.87;2.40;;;19.90;99.90;;;;;;5074452;28;20465;-78
2021/08/18 11:54:08;;;;;;;5.70;2.50;;;19.90;99.90;;;;;;5074822;28;20878;-74
2021/08/18 11:56:35;;;;;;;3.47;2.20;;;20.00;99.90;;;;;;5074472;28;20459;-75
2021/08/18 11:59:03;;;;;;;3.17;2.20;;;20.00;99.90;;;;;;5074345;28;20543;-74
2021/08/18 12:01:31;;;;;;;3.50;2.30;;;20.00;99.90;;;;;;5074089;28;20515;-75
2021/08/18 12:03:58;;;;;;;3.43;2.30;;;20.00;99.90;;;;;;5074668;28;20458;-74
2021/08/18 12:06:37;;;;;;;3.20;2.37;;;20.00;99.90;;;;;;5074272;28;20454;-74
2021/08/18 12:09:18;;;;;;;2.40;2.17;;;20.00;99.90;;;;;;5074453;28;20740;-77
2021/08/18 12:11:45;;;;;;;2.70;2.50;;;19.90;99.90;;;;;;5074219;28;20442;-76
2021/08/18 12:14:14;;;;;;;4.50;2.30;;;19.70;99.90;;;;;;5074114;28;20465;-74
2021/08/18 12:16:42;;;;;;;2.80;2.13;;;19.60;99.90;;;;;;5073878;28;20945;-76
2021/08/18 12:19:35;;;;;;;3.00;2.30;;;19.50;99.90;;;;;;5073975;28;20567;-73
2021/08/18 12:22:07;;;;;;;4.10;2.47;;;19.30;99.90;;;;;;5073908;28;20441;-73
2021/08/18 12:24:34;;;;;;;8.00;2.60;;;19.30;99.90;;;;;;5073731;28;20439;-75
2021/08/18 12:27:02;;;;;;;3.40;2.20;;;19.40;99.90;;;;;;5074089;28;20461;-74
2021/08/18 12:29:30;;;;;;;2.10;1.80;;;19.50;99.90;;;;;;5074499;28;20553;-74
2021/08/18 12:32:01;;;;;;;2.07;1.87;;;19.50;99.90;;;;;;5073522;28;20937;-73
2021/08/18 12:34:37;;;;;;;3.77;2.10;;;19.60;99.90;;;;;;5073722;28;20782;-76
2021/08/18 12:37:07;;;;;;;4.47;2.50;;;19.60;99.90;;;;;;5076565;28;20525;-76
2021/08/18 12:39:35;;;;;;;3.90;2.50;;;19.50;99.90;;;;;;5077481;28;20454;-75
2021/08/18 12:42:03;;;;;;;2.27;1.97;;;19.50;99.90;;;;;;5077703;28;20771;-74
2021/08/18 12:44:31;;;;;;;2.37;1.67;;;19.40;99.90;;;;;;5077712;28;20480;-74
2021/08/18 12:47:07;;;;;;;3.77;2.10;;;19.30;99.90;;;;;;5077237;28;20460;-73
2021/08/18 12:49:35;;;;;;;2.33;2.10;;;19.20;99.90;;;;;;5077651;28;20457;-74